createdAt,value
2023-01-01T00:00:54.642Z,12.09
2023-01-01T00:03:44.249Z,12.09
2023-01-01T00:06:15.196Z,12.09
2023-01-01T00:08:44.641Z,12.09
2023-01-01T00:11:15.892Z,12.11
2023-01-01T00:13:45.706Z,12.09
2023-01-01T00:16:16.796Z,12.01
2023-01-01T00:18:46.327Z,12.02
2023-01-01T00:21:17.737Z,11.99
2023-01-01T00:23:47.137Z,12.02
2023-01-01T00:26:19.661Z,11.99
2023-01-01T00:28:49.131Z,12.01
2023-01-01T00:31:20.784Z,12.01
2023-01-01T00:33:54.167Z,12.10
2023-01-01T00:36:26.060Z,12.10
2023-01-01T00:38:56.072Z,12.12
2023-01-01T00:41:26.826Z,12.07
2023-01-01T00:43:55.909Z,12.09
2023-01-01T00:46:25.593Z,12.13
2023-01-01T00:48:55.019Z,12.17
2023-01-01T00:51:24.714Z,12.19
2023-01-01T00:53:54.191Z,12.21
2023-01-01T00:56:23.974Z,12.24
2023-01-01T00:59:00.799Z,12.30
2023-01-01T01:01:31.802Z,12.36
2023-01-01T01:04:01.313Z,12.37
2023-01-01T01:06:31.003Z,12.40
2023-01-01T01:09:00.474Z,12.45
2023-01-01T01:11:30.202Z,12.47
2023-01-01T01:14:01.022Z,12.52
2023-01-01T01:16:33.135Z,12.55
2023-01-01T01:19:04.776Z,12.60
2023-01-01T01:21:35.941Z,12.65
2023-01-01T01:24:05.942Z,12.69
2023-01-01T01:26:36.716Z,12.68
2023-01-01T01:29:07.481Z,12.70
2023-01-01T01:31:37.625Z,12.69
2023-01-01T01:34:09.664Z,12.77
2023-01-01T01:36:42.393Z,12.78
2023-01-01T01:39:13.385Z,12.80
2023-01-01T01:41:43.152Z,12.80
2023-01-01T01:44:45.528Z,12.85
2023-01-01T01:47:18.799Z,12.86
2023-01-01T01:49:49.811Z,12.88
2023-01-01T01:52:19.673Z,12.85
2023-01-01T01:54:49.361Z,12.86
2023-01-01T01:57:19.860Z,12.85
2023-01-01T01:59:53.248Z,12.84
2023-01-01T02:02:30.372Z,12.86
2023-01-01T02:05:00.885Z,12.76
2023-01-01T02:07:33.422Z,12.80
2023-01-01T02:10:04.111Z,12.81
2023-01-01T02:12:34.049Z,12.83
2023-01-01T02:15:03.463Z,12.80
2023-01-01T02:17:39.562Z,12.80
2023-01-01T02:20:44.527Z,12.79
2023-01-01T02:23:34.500Z,12.78
2023-01-01T02:26:19.542Z,12.75
2023-01-01T02:29:01.660Z,12.77
2023-01-01T02:31:37.763Z,12.78
2023-01-01T02:34:11.610Z,12.75
2023-01-01T02:36:45.785Z,12.74
2023-01-01T02:39:17.911Z,12.69
2023-01-01T02:41:51.658Z,12.70
2023-01-01T02:44:26.167Z,12.64
2023-01-01T02:46:55.666Z,12.65
2023-01-01T02:49:28.322Z,12.69
2023-01-01T02:52:06.310Z,12.68
2023-01-01T02:54:43.942Z,12.68
2023-01-01T02:57:26.249Z,12.69
2023-01-01T03:00:28.068Z,12.68
2023-01-01T03:03:10.891Z,12.70
2023-01-01T03:06:01.925Z,12.71
2023-01-01T03:08:45.794Z,12.73
2023-01-01T03:11:19.619Z,12.73
2023-01-01T03:13:59.151Z,12.76
2023-01-01T03:16:36.620Z,12.78
2023-01-01T03:19:11.845Z,12.80
2023-01-01T03:21:50.589Z,12.84
2023-01-01T03:24:25.180Z,12.86
2023-01-01T03:26:59.597Z,12.86
2023-01-01T03:29:32.962Z,12.88
2023-01-01T03:32:07.517Z,12.91
2023-01-01T03:34:41.633Z,12.93
2023-01-01T03:37:17.142Z,12.95
2023-01-01T03:39:51.338Z,12.96
2023-01-01T03:42:28.208Z,12.98
2023-01-01T03:45:04.119Z,13.03
2023-01-01T03:47:35.549Z,13.02
2023-01-01T03:50:06.316Z,13.03
2023-01-01T03:52:44.722Z,13.04
2023-01-01T03:55:21.268Z,13.06
2023-01-01T03:58:02.449Z,13.10
2023-01-01T04:00:36.030Z,13.11
2023-01-01T04:03:10.949Z,13.12
2023-01-01T04:05:43.963Z,13.10
2023-01-01T04:08:15.411Z,13.11
2023-01-01T04:10:47.808Z,13.15
2023-01-01T04:13:17.495Z,13.16
2023-01-01T04:15:47.008Z,13.16
2023-01-01T04:18:18.197Z,13.18
2023-01-01T04:20:47.517Z,13.14
2023-01-01T04:23:17.155Z,13.15
2023-01-01T04:25:46.631Z,13.18
2023-01-01T04:28:16.216Z,13.13
2023-01-01T04:30:45.554Z,13.18
2023-01-01T04:33:16.604Z,13.23
2023-01-01T04:35:45.983Z,13.23
2023-01-01T04:38:15.935Z,13.19
2023-01-01T04:40:45.623Z,13.23
2023-01-01T04:43:15.202Z,13.23
2023-01-01T04:45:44.614Z,13.29
2023-01-01T04:48:14.282Z,13.32
2023-01-01T04:50:45.036Z,13.30
2023-01-01T04:53:14.988Z,13.31
2023-01-01T04:55:44.345Z,13.30
2023-01-01T04:58:13.977Z,13.30
2023-01-01T05:00:43.366Z,13.28
2023-01-01T05:03:12.981Z,13.29
2023-01-01T05:05:48.083Z,13.31
2023-01-01T05:08:20.748Z,13.33
2023-01-01T05:10:50.064Z,13.25
2023-01-01T05:13:19.747Z,13.29
2023-01-01T05:15:49.047Z,13.30
2023-01-01T05:18:19.019Z,13.33
2023-01-01T05:20:49.945Z,13.25
2023-01-01T05:23:20.082Z,13.34
2023-01-01T05:25:49.425Z,13.35
2023-01-01T05:28:19.014Z,13.33
2023-01-01T05:30:48.494Z,13.31
2023-01-01T05:33:18.162Z,13.33
2023-01-01T05:35:53.626Z,13.35
2023-01-01T05:38:23.283Z,13.34
2023-01-01T05:40:52.677Z,13.30
2023-01-01T05:43:22.359Z,13.35
2023-01-01T05:46:00.300Z,13.37
2023-01-01T05:48:30.110Z,13.31
2023-01-01T05:51:05.777Z,13.36
2023-01-01T05:53:36.023Z,13.37
2023-01-01T05:56:05.888Z,13.40
2023-01-01T05:58:36.635Z,13.45
2023-01-01T06:01:13.147Z,13.41
2023-01-01T06:03:43.710Z,13.41
2023-01-01T06:06:16.964Z,13.38
2023-01-01T06:08:52.051Z,13.46
2023-01-01T06:11:21.866Z,13.48
2023-01-01T06:13:53.932Z,13.48
2023-01-01T06:16:23.675Z,13.48
2023-01-01T06:18:53.407Z,13.46
2023-01-01T06:21:26.698Z,13.47
2023-01-01T06:23:58.441Z,13.47
2023-01-01T06:26:29.970Z,13.49
2023-01-01T06:29:00.794Z,13.46
2023-01-01T06:31:36.851Z,13.45
2023-01-01T06:34:10.249Z,13.43
2023-01-01T06:36:41.023Z,13.44
2023-01-01T06:39:10.772Z,13.43
2023-01-01T06:41:40.095Z,13.44
2023-01-01T06:44:09.781Z,13.42
2023-01-01T06:46:39.859Z,13.51
2023-01-01T06:49:12.734Z,13.53
2023-01-01T06:51:44.982Z,13.53
2023-01-01T06:54:14.678Z,13.54
2023-01-01T06:56:43.995Z,13.54
2023-01-01T06:59:13.694Z,13.57
2023-01-01T07:01:44.382Z,13.58
2023-01-01T07:04:16.645Z,13.59
2023-01-01T07:06:47.493Z,13.63
2023-01-01T07:09:17.198Z,13.59
2023-01-01T07:11:46.642Z,13.61
2023-01-01T07:14:16.244Z,13.63
2023-01-01T07:16:45.624Z,13.61
2023-01-01T07:19:15.218Z,13.65
2023-01-01T07:21:49.111Z,13.67
2023-01-01T07:24:20.066Z,13.65
2023-01-01T07:26:50.195Z,13.62
2023-01-01T07:29:19.850Z,13.68
2023-01-01T07:31:49.283Z,13.65
2023-01-01T07:34:20.593Z,13.70
2023-01-01T07:36:51.328Z,13.70
2023-01-01T07:39:21.066Z,13.68
2023-01-01T07:41:50.324Z,13.69
2023-01-01T07:44:19.998Z,13.74
2023-01-01T07:46:49.382Z,13.71
2023-01-01T07:49:19.119Z,13.72
2023-01-01T07:51:48.450Z,13.71
2023-01-01T07:54:19.486Z,13.73
2023-01-01T07:56:48.951Z,13.71
2023-01-01T07:59:20.527Z,13.69
2023-01-01T08:01:50.397Z,13.74
2023-01-01T08:04:20.117Z,13.66
2023-01-01T08:06:49.473Z,13.69
2023-01-01T08:09:20.599Z,13.69
2023-01-01T08:11:52.934Z,13.69
2023-01-01T08:14:22.715Z,13.71
2023-01-01T08:16:52.144Z,13.67
2023-01-01T08:19:21.862Z,13.67
2023-01-01T08:21:51.223Z,13.71
2023-01-01T08:24:22.320Z,13.68
2023-01-01T08:26:51.961Z,13.72
2023-01-01T08:29:22.045Z,13.70
2023-01-01T08:31:51.643Z,13.70
2023-01-01T08:34:21.325Z,13.72
2023-01-01T08:36:50.771Z,13.70
2023-01-01T08:39:21.857Z,13.71
2023-01-01T08:41:51.264Z,13.71
2023-01-01T08:44:21.143Z,13.72
2023-01-01T08:46:51.033Z,13.71
2023-01-01T08:49:20.927Z,13.70
2023-01-01T08:51:50.237Z,13.71
2023-01-01T08:54:21.311Z,13.75
2023-01-01T08:56:50.811Z,13.78
2023-01-01T08:59:22.006Z,13.76
2023-01-01T09:01:51.546Z,13.75
2023-01-01T09:04:21.290Z,13.75
2023-01-01T09:06:50.969Z,13.77
2023-01-01T09:09:25.749Z,13.75
2023-01-01T09:12:06.154Z,13.76
2023-01-01T09:14:36.417Z,13.77
2023-01-01T09:17:05.898Z,13.77
2023-01-01T09:19:35.584Z,13.77
2023-01-01T09:22:04.929Z,13.79
2023-01-01T09:24:36.040Z,13.84
2023-01-01T09:27:05.502Z,13.80
2023-01-01T09:29:35.739Z,13.85
2023-01-01T09:32:05.251Z,13.90
2023-01-01T09:34:34.890Z,13.92
2023-01-01T09:37:04.381Z,13.93
2023-01-01T09:39:35.439Z,13.93
2023-01-01T09:42:26.636Z,13.99
2023-01-01T09:45:21.143Z,13.97
2023-01-01T09:47:53.583Z,14.02
2023-01-01T09:50:25.452Z,14.07
2023-01-01T09:52:57.752Z,14.11
2023-01-01T09:55:35.939Z,14.14
2023-01-01T09:58:05.405Z,14.24
2023-01-01T10:00:38.329Z,14.24
2023-01-01T10:03:23.350Z,14.30
2023-01-01T10:06:02.189Z,14.29
2023-01-01T10:08:44.864Z,14.37
2023-01-01T10:11:21.828Z,14.46
2023-01-01T10:13:53.358Z,14.50
2023-01-01T10:16:33.257Z,14.51
2023-01-01T10:19:14.228Z,14.57
2023-01-01T10:21:47.537Z,14.59
2023-01-01T10:24:42.615Z,14.64
2023-01-01T10:27:25.093Z,14.64
2023-01-01T10:30:01.323Z,14.65
2023-01-01T10:32:35.495Z,14.64
2023-01-01T10:35:13.707Z,14.65
2023-01-01T10:37:44.245Z,14.65
2023-01-01T10:40:19.315Z,14.63
2023-01-01T10:42:52.947Z,14.66
2023-01-01T10:45:31.062Z,14.67
2023-01-01T10:48:19.031Z,14.72
2023-01-01T10:50:53.700Z,14.75
2023-01-01T10:53:30.251Z,14.81
2023-01-01T10:56:06.321Z,14.82
2023-01-01T10:58:43.923Z,14.84
2023-01-01T11:01:20.723Z,14.89
2023-01-01T11:03:59.309Z,14.93
2023-01-01T11:06:32.140Z,14.98
2023-01-01T11:09:07.148Z,14.99
2023-01-01T11:11:51.217Z,15.02
2023-01-01T11:14:30.914Z,15.03
2023-01-01T11:17:00.853Z,15.11
2023-01-01T11:19:31.729Z,15.12
2023-01-01T11:22:01.225Z,15.11
2023-01-01T11:24:32.159Z,15.14
2023-01-01T11:27:19.745Z,15.13
2023-01-01T11:29:55.305Z,15.15
2023-01-01T11:32:30.698Z,15.18
2023-01-01T11:35:06.343Z,15.15
2023-01-01T11:37:38.972Z,15.15
2023-01-01T11:40:19.090Z,15.13
2023-01-01T11:42:58.337Z,15.10
2023-01-01T11:45:37.901Z,15.07
2023-01-01T11:48:14.731Z,15.04
2023-01-01T11:50:54.151Z,15.03
2023-01-01T11:53:32.116Z,14.98
2023-01-01T11:56:11.471Z,15.01
2023-01-01T11:58:49.208Z,15.08
2023-01-01T12:01:28.658Z,15.09
2023-01-01T12:04:04.245Z,15.14
2023-01-01T12:06:41.099Z,15.13
2023-01-01T12:09:18.691Z,15.20
2023-01-01T12:11:52.995Z,15.20
2023-01-01T12:14:32.862Z,15.21
2023-01-01T12:17:08.556Z,15.23
2023-01-01T12:19:43.737Z,15.27
2023-01-01T12:22:17.536Z,15.27
2023-01-01T12:24:49.366Z,15.25
2023-01-01T12:27:30.994Z,15.24
2023-01-01T12:30:13.395Z,15.19
2023-01-01T12:33:37.907Z,15.18
2023-01-01T12:36:27.391Z,15.13
2023-01-01T12:39:52.535Z,15.09
2023-01-01T12:42:36.750Z,15.04
2023-01-01T12:45:34.147Z,14.99
2023-01-01T12:48:23.077Z,14.93
2023-01-01T12:51:04.959Z,14.90
2023-01-01T12:53:45.037Z,14.91
2023-01-01T12:56:22.806Z,14.86
2023-01-01T12:58:57.541Z,14.89
2023-01-01T13:01:33.759Z,14.87
2023-01-01T13:04:07.895Z,14.83
2023-01-01T13:06:43.882Z,14.77
2023-01-01T13:09:16.977Z,14.75
2023-01-01T13:11:49.632Z,14.77
2023-01-01T13:14:19.598Z,14.75
2023-01-01T13:16:54.285Z,14.71
2023-01-01T13:19:34.030Z,14.71
2023-01-01T13:22:42.154Z,14.67
2023-01-01T13:25:23.320Z,14.65
2023-01-01T13:28:17.059Z,14.57
2023-01-01T13:30:50.920Z,14.58
2023-01-01T13:33:27.563Z,14.52
2023-01-01T13:36:33.153Z,14.51
2023-01-01T13:39:04.177Z,14.51
2023-01-01T13:41:40.608Z,14.44
2023-01-01T13:44:20.360Z,14.43
2023-01-01T13:47:09.855Z,14.42
2023-01-01T13:49:58.093Z,14.42
2023-01-01T13:53:06.058Z,14.37
2023-01-01T13:55:55.336Z,14.35
2023-01-01T13:58:53.156Z,14.29
2023-01-01T14:01:43.333Z,14.28
2023-01-01T14:04:25.909Z,14.24
2023-01-01T14:07:09.207Z,14.20
2023-01-01T14:09:48.180Z,14.15
2023-01-01T14:12:20.789Z,14.15
2023-01-01T14:14:50.486Z,14.13
2023-01-01T14:17:21.316Z,14.12
2023-01-01T14:19:51.431Z,14.04
2023-01-01T14:22:21.542Z,14.06
2023-01-01T14:24:51.014Z,14.05
2023-01-01T14:27:24.066Z,13.97
2023-01-01T14:29:56.006Z,13.94
2023-01-01T14:32:28.996Z,13.97
2023-01-01T14:35:02.788Z,13.95
2023-01-01T14:37:32.582Z,13.89
2023-01-01T14:40:10.823Z,13.92
2023-01-01T14:42:42.614Z,13.89
2023-01-01T14:45:18.126Z,13.87
2023-01-01T14:47:51.488Z,13.85
2023-01-01T14:50:34.077Z,13.82
2023-01-01T14:53:07.548Z,13.83
2023-01-01T14:55:41.153Z,13.83
2023-01-01T14:58:17.849Z,13.73
2023-01-01T15:00:47.297Z,13.73
2023-01-01T15:03:18.845Z,13.69
2023-01-01T15:05:59.017Z,13.68
2023-01-01T15:08:29.321Z,13.63
2023-01-01T15:10:59.457Z,13.63
2023-01-01T15:13:32.708Z,13.59
2023-01-01T15:16:23.634Z,13.63
2023-01-01T15:18:59.240Z,13.63
2023-01-01T15:21:42.284Z,13.58
2023-01-01T15:24:18.380Z,13.55
2023-01-01T15:26:55.583Z,13.57
2023-01-01T15:29:32.098Z,13.51
2023-01-01T15:32:03.478Z,13.52
2023-01-01T15:34:35.621Z,13.50
2023-01-01T15:37:16.753Z,13.46
2023-01-01T15:39:50.044Z,13.42
2023-01-01T15:42:33.993Z,13.40
2023-01-01T15:45:29.279Z,13.36
2023-01-01T15:48:19.474Z,13.36
2023-01-01T15:51:17.580Z,13.39
2023-01-01T15:53:58.187Z,13.33
2023-01-01T15:56:31.358Z,13.28
2023-01-01T15:59:09.097Z,13.28
2023-01-01T16:01:42.075Z,13.27
2023-01-01T16:04:22.070Z,13.27
2023-01-01T16:06:58.447Z,13.24
2023-01-01T16:09:28.139Z,13.18
2023-01-01T16:11:59.544Z,13.15
2023-01-01T16:14:28.990Z,13.13
2023-01-01T16:17:02.081Z,13.04
2023-01-01T16:19:32.980Z,13.09
2023-01-01T16:22:02.673Z,13.10
2023-01-01T16:24:32.275Z,13.09
2023-01-01T16:27:02.948Z,13.06
2023-01-01T16:29:32.267Z,13.06
2023-01-01T16:32:03.453Z,13.04
2023-01-01T16:34:32.879Z,13.01
2023-01-01T16:37:02.844Z,12.96
2023-01-01T16:39:32.302Z,12.96
2023-01-01T16:42:02.063Z,12.95
2023-01-01T16:44:31.551Z,12.93
2023-01-01T16:47:02.924Z,12.85
2023-01-01T16:49:33.222Z,12.84
2023-01-01T16:52:04.537Z,12.81
2023-01-01T16:54:33.884Z,12.80
2023-01-01T16:57:03.697Z,12.78
2023-01-01T16:59:33.131Z,12.75
2023-01-01T17:02:04.376Z,12.66
2023-01-01T17:04:35.253Z,12.64
2023-01-01T17:07:04.962Z,12.65
2023-01-01T17:09:34.262Z,12.63
2023-01-01T17:12:04.212Z,12.64
2023-01-01T17:14:33.595Z,12.59
2023-01-01T17:17:04.775Z,12.57
2023-01-01T17:19:34.236Z,12.48
2023-01-01T17:22:05.736Z,12.48
2023-01-01T17:24:35.445Z,12.46
2023-01-01T17:27:05.108Z,12.42
2023-01-01T17:29:34.523Z,12.39
2023-01-01T17:32:06.040Z,12.39
2023-01-01T17:34:35.384Z,12.32
2023-01-01T17:37:05.008Z,12.29
2023-01-01T17:39:34.351Z,12.29
2023-01-01T17:42:04.010Z,12.24
2023-01-01T17:44:33.396Z,12.21
2023-01-01T17:47:04.485Z,12.15
2023-01-01T17:49:34.189Z,12.11
2023-01-01T17:52:04.115Z,12.11
2023-01-01T17:54:34.043Z,12.09
2023-01-01T17:57:03.943Z,12.01
2023-01-01T17:59:33.968Z,12.01
2023-01-01T18:02:06.040Z,12.02
2023-01-01T18:04:35.871Z,12.04
2023-01-01T18:07:06.551Z,12.02
2023-01-01T18:09:38.304Z,11.97
2023-01-01T18:12:08.697Z,11.99
2023-01-01T18:14:38.134Z,11.98
2023-01-01T18:17:09.198Z,11.97
2023-01-01T18:19:39.647Z,11.97
2023-01-01T18:22:09.337Z,11.97
2023-01-01T18:24:38.801Z,11.94
2023-01-01T18:27:10.074Z,11.94
2023-01-01T18:29:40.967Z,11.91
2023-01-01T18:32:12.122Z,11.90
2023-01-01T18:34:41.575Z,11.87
2023-01-01T18:37:11.193Z,11.81
2023-01-01T18:39:42.130Z,11.72
2023-01-01T18:42:34.637Z,11.62
2023-01-01T18:45:15.653Z,11.49
2023-01-01T18:47:47.051Z,11.43
2023-01-01T18:50:25.924Z,11.40
2023-01-01T18:53:00.894Z,11.34
2023-01-01T18:55:30.331Z,11.26
2023-01-01T18:58:04.714Z,11.19
2023-01-01T19:00:36.555Z,11.09
2023-01-01T19:03:17.860Z,11.03
2023-01-01T19:05:48.865Z,11.00
2023-01-01T19:08:21.310Z,10.95
2023-01-01T19:10:53.735Z,10.89
2023-01-01T19:13:25.103Z,10.80
2023-01-01T19:15:58.507Z,10.79
2023-01-01T19:18:32.164Z,10.74
2023-01-01T19:21:18.223Z,10.71
2023-01-01T19:23:53.514Z,10.65
2023-01-01T19:26:26.468Z,10.64
2023-01-01T19:28:58.152Z,10.58
2023-01-01T19:31:27.897Z,10.55
2023-01-01T19:33:58.941Z,10.53
2023-01-01T19:36:28.469Z,10.49
2023-01-01T19:38:58.085Z,10.49
2023-01-01T19:41:27.579Z,10.48
2023-01-01T19:43:57.448Z,10.41
2023-01-01T19:46:27.062Z,10.35
2023-01-01T19:48:58.613Z,10.37
2023-01-01T19:51:28.433Z,10.37
2023-01-01T19:53:58.113Z,10.33
2023-01-01T19:56:27.527Z,10.33
2023-01-01T19:58:58.706Z,10.32
2023-01-01T20:01:28.148Z,10.29
2023-01-01T20:03:59.769Z,10.28
2023-01-01T20:06:30.528Z,10.25
2023-01-01T20:09:00.369Z,10.23
2023-01-01T20:11:31.826Z,10.24
2023-01-01T20:14:02.615Z,10.23
2023-01-01T20:16:32.694Z,10.20
2023-01-01T20:19:03.829Z,10.16
2023-01-01T20:21:59.155Z,10.14
2023-01-01T20:24:28.990Z,10.04
2023-01-01T20:26:58.697Z,10.04
2023-01-01T20:29:31.138Z,9.95
2023-01-01T20:32:00.603Z,9.94
2023-01-01T20:34:32.104Z,9.98
2023-01-01T20:37:19.023Z,10.02
2023-01-01T20:39:48.775Z,10.04
2023-01-01T20:42:18.411Z,10.02
2023-01-01T20:44:48.178Z,9.99
2023-01-01T20:47:17.846Z,9.97
2023-01-01T20:49:49.212Z,9.96
2023-01-01T20:52:18.961Z,9.99
2023-01-01T20:54:48.493Z,9.95
2023-01-01T20:57:17.987Z,9.91
2023-01-01T20:59:47.742Z,9.90
2023-01-01T21:02:17.225Z,9.88
2023-01-01T21:04:48.442Z,9.81
2023-01-01T21:07:17.872Z,9.86
2023-01-01T21:09:47.542Z,9.83
2023-01-01T21:12:17.161Z,9.83
2023-01-01T21:14:47.385Z,9.79
2023-01-01T21:17:22.913Z,9.76
2023-01-01T21:19:57.493Z,9.71
2023-01-01T21:22:28.103Z,9.68
2023-01-01T21:25:24.150Z,9.61
2023-01-01T21:27:48.526Z,9.46
2023-01-01T21:30:18.230Z,9.47
2023-01-01T21:32:49.230Z,9.46
2023-01-01T21:35:23.564Z,9.41
2023-01-01T21:37:55.345Z,9.39
2023-01-01T21:40:40.187Z,9.38
2023-01-01T21:43:38.561Z,9.40
2023-01-01T21:46:26.449Z,9.40
2023-01-01T21:48:59.490Z,9.38
2023-01-01T21:51:34.277Z,9.34
2023-01-01T21:54:18.662Z,9.35
2023-01-01T21:56:56.207Z,9.28
2023-01-01T21:59:34.186Z,9.22
2023-01-01T22:02:42.710Z,9.27
2023-01-01T22:05:31.061Z,9.25
2023-01-01T22:08:21.470Z,9.24
2023-01-01T22:10:50.962Z,9.26
2023-01-01T22:13:23.488Z,9.30
2023-01-01T22:15:52.980Z,9.31
2023-01-01T22:18:27.673Z,9.33
2023-01-01T22:20:58.086Z,9.36
2023-01-01T22:23:36.354Z,9.37
2023-01-01T22:26:15.363Z,9.39
2023-01-01T22:28:47.081Z,9.39
2023-01-01T22:31:23.345Z,9.39
2023-01-01T22:33:57.216Z,9.38
2023-01-01T22:36:29.299Z,9.38
2023-01-01T22:39:03.823Z,9.41
2023-01-01T22:41:33.327Z,9.42
2023-01-01T22:44:04.569Z,9.38
2023-01-01T22:46:38.027Z,9.39
2023-01-01T22:49:18.174Z,9.36
2023-01-01T22:51:50.678Z,9.31
2023-01-01T22:54:21.749Z,9.29
2023-01-01T22:56:52.413Z,9.30
2023-01-01T22:59:22.194Z,9.29
2023-01-01T23:01:51.638Z,9.31
2023-01-01T23:04:21.330Z,9.32
2023-01-01T23:06:50.831Z,9.35
2023-01-01T23:09:22.167Z,9.35
2023-01-01T23:11:51.802Z,9.33
2023-01-01T23:14:39.406Z,9.35
2023-01-01T23:17:09.230Z,9.37
2023-01-01T23:19:39.061Z,9.39
2023-01-01T23:22:08.589Z,9.38
2023-01-01T23:24:39.671Z,9.37
2023-01-01T23:27:09.636Z,9.40
2023-01-01T23:29:38.989Z,9.35
2023-01-01T23:32:08.433Z,9.30
2023-01-01T23:34:38.047Z,9.30
2023-01-01T23:37:08.080Z,9.32
2023-01-01T23:39:38.948Z,9.30
2023-01-01T23:42:08.385Z,9.30
2023-01-01T23:44:38.092Z,9.29
2023-01-01T23:47:07.546Z,9.30
2023-01-01T23:49:37.835Z,9.29
2023-01-01T23:52:07.730Z,9.30
2023-01-01T23:54:39.161Z,9.28
2023-01-01T23:57:08.671Z,9.28
2023-01-01T23:59:38.291Z,9.29
